Terminal Aerodrome Forecast
Issued by NWS Mt. Holly, NJ

Home | Current Version | Previous Version | Text Only | Print | Product List | Glossary On
Versions: 1 2 3 4 5 6 7 8 9 10 11 12 13 14 15 16 17 18 19 20 21 22 23 24
000
FTUS41 KPHI 211724
TAFPHL
TAF
KPHL 211724Z 2118/2224 19009KT P6SM SCT045 BKN250
     FM220200 19005KT P6SM BKN040
     FM220800 19005KT 6SM BR BKN015
     FM221500 22010KT P6SM BKN035=

USA.gov is the U.S. government's official web portal to all federal, state and local government web resources and services.